Herentals, Belgium
Current Conditions -  °F | °C
As of 10:25 AM on Wednesday 26 Nov 2014 (Local Time) from EBDT Reporting Station
Broken Clouds Broken Clouds  
Wind Chill: 40°   Ceiling: 10000
Heat Index: 43°   Visibility: 5mi
Dew Point: 39°   Wind: 5mph
Humidity: 87%   Direction: 100°E
Pressure: 29.94"   Gusts: NA
Location:  51.18°N, 4.83°E
Report Text: EBDT 260925Z 10004KT 8000 SCT070 BKN100 06/04 Q1014 BLU BLU TEMPO WHT
Loading
Personal Weather Stations






























Interactive Weather Map New forecast layout! Learn more

10-Day Weather Forecast

Advertisements
Track Severe Weather on mobile